sensor_id;sensor_type;location;lat;lon;timestamp;temperature;humidity
71039;SHT30;58692;43.212;27.908;2022-07-29T00:02:00;23.59;74.68
71039;SHT30;58692;43.212;27.908;2022-07-29T00:04:25;23.58;73.96
71039;SHT30;58692;43.212;27.908;2022-07-29T00:06:51;23.66;73.55
71039;SHT30;58692;43.212;27.908;2022-07-29T00:09:16;23.77;72.88
71039;SHT30;58692;43.212;27.908;2022-07-29T00:11:42;23.87;72.57
71039;SHT30;58692;43.212;27.908;2022-07-29T00:14:09;23.77;72.93
71039;SHT30;58692;43.212;27.908;2022-07-29T00:16:35;23.86;72.59
71039;SHT30;58692;43.212;27.908;2022-07-29T00:19:01;23.87;72.53
71039;SHT30;58692;43.212;27.908;2022-07-29T00:21:26;23.89;72.63
71039;SHT30;58692;43.212;27.908;2022-07-29T00:23:52;23.86;72.46
71039;SHT30;58692;43.212;27.908;2022-07-29T00:26:17;23.42;73.48
71039;SHT30;58692;43.212;27.908;2022-07-29T00:28:43;23.55;72.32
71039;SHT30;58692;43.212;27.908;2022-07-29T00:31:08;23.56;72.05
71039;SHT30;58692;43.212;27.908;2022-07-29T00:33:34;23.59;71.85
71039;SHT30;58692;43.212;27.908;2022-07-29T00:35:59;23.66;71.65
71039;SHT30;58692;43.212;27.908;2022-07-29T00:38:25;23.69;71.53
71039;SHT30;58692;43.212;27.908;2022-07-29T00:40:50;23.73;71.45
71039;SHT30;58692;43.212;27.908;2022-07-29T00:43:17;23.72;71.33
71039;SHT30;58692;43.212;27.908;2022-07-29T00:45:43;23.67;71.31
71039;SHT30;58692;43.212;27.908;2022-07-29T00:48:09;23.74;71.19
71039;SHT30;58692;43.212;27.908;2022-07-29T00:50:36;23.82;71.19
71039;SHT30;58692;43.212;27.908;2022-07-29T00:53:03;23.80;71.29
71039;SHT30;58692;43.212;27.908;2022-07-29T00:55:30;23.86;70.86
71039;SHT30;58692;43.212;27.908;2022-07-29T00:57:56;23.86;70.60
71039;SHT30;58692;43.212;27.908;2022-07-29T01:00:25;23.86;70.47
71039;SHT30;58692;43.212;27.908;2022-07-29T01:02:51;23.83;70.61
71039;SHT30;58692;43.212;27.908;2022-07-29T01:05:18;23.74;71.42
71039;SHT30;58692;43.212;27.908;2022-07-29T01:07:46;23.77;71.75
71039;SHT30;58692;43.212;27.908;2022-07-29T01:10:14;23.74;72.10
71039;SHT30;58692;43.212;27.908;2022-07-29T01:12:40;23.77;72.24
71039;SHT30;58692;43.212;27.908;2022-07-29T01:15:08;23.48;73.85
71039;SHT30;58692;43.212;27.908;2022-07-29T01:18:04;23.52;74.07
71039;SHT30;58692;43.212;27.908;2022-07-29T01:20:56;23.33;74.50
71039;SHT30;58692;43.212;27.908;2022-07-29T01:31:20;23.31;75.66
71039;SHT30;58692;43.212;27.908;2022-07-29T01:33:50;23.29;75.67
71039;SHT30;58692;43.212;27.908;2022-07-29T01:36:35;23.37;75.54
71039;SHT30;58692;43.212;27.908;2022-07-29T01:39:18;23.32;75.48
71039;SHT30;58692;43.212;27.908;2022-07-29T01:47:20;23.21;75.28
71039;SHT30;58692;43.212;27.908;2022-07-29T01:49:49;23.19;75.07
71039;SHT30;58692;43.212;27.908;2022-07-29T01:52:23;23.14;75.01
71039;SHT30;58692;43.212;27.908;2022-07-29T01:54:54;22.75;75.86
71039;SHT30;58692;43.212;27.908;2022-07-29T01:57:26;22.80;75.92
71039;SHT30;58692;43.212;27.908;2022-07-29T01:59:52;22.91;75.18
71039;SHT30;58692;43.212;27.908;2022-07-29T02:02:19;22.87;75.32
71039;SHT30;58692;43.212;27.908;2022-07-29T02:04:47;22.90;75.44
71039;SHT30;58692;43.212;27.908;2022-07-29T02:07:18;22.72;76.13
71039;SHT30;58692;43.212;27.908;2022-07-29T02:09:45;22.61;76.62
71039;SHT30;58692;43.212;27.908;2022-07-29T02:12:14;22.41;77.03
71039;SHT30;58692;43.212;27.908;2022-07-29T02:14:45;22.43;76.79
71039;SHT30;58692;43.212;27.908;2022-07-29T02:17:12;22.47;76.57
71039;SHT30;58692;43.212;27.908;2022-07-29T02:19:39;22.29;76.95
71039;SHT30;58692;43.212;27.908;2022-07-29T02:22:06;22.27;77.02
71039;SHT30;58692;43.212;27.908;2022-07-29T02:24:34;22.46;76.47
71039;SHT30;58692;43.212;27.908;2022-07-29T02:27:01;22.37;76.87
71039;SHT30;58692;43.212;27.908;2022-07-29T02:29:29;22.40;76.80
71039;SHT30;58692;43.212;27.908;2022-07-29T02:31:57;22.46;76.53
71039;SHT30;58692;43.212;27.908;2022-07-29T02:34:24;22.57;76.20
71039;SHT30;58692;43.212;27.908;2022-07-29T02:36:50;22.57;76.05
71039;SHT30;58692;43.212;27.908;2022-07-29T02:39:18;22.60;75.66
71039;SHT30;58692;43.212;27.908;2022-07-29T02:41:48;22.63;75.45
71039;SHT30;58692;43.212;27.908;2022-07-29T02:44:19;22.63;75.31
71039;SHT30;58692;43.212;27.908;2022-07-29T02:49:22;22.65;75.34
71039;SHT30;58692;43.212;27.908;2022-07-29T02:51:54;22.58;75.58
71039;SHT30;58692;43.212;27.908;2022-07-29T02:54:26;22.44;76.03
71039;SHT30;58692;43.212;27.908;2022-07-29T02:56:53;22.24;76.61
71039;SHT30;58692;43.212;27.908;2022-07-29T02:59:23;22.24;76.47
71039;SHT30;58692;43.212;27.908;2022-07-29T03:01:51;22.09;77.08
71039;SHT30;58692;43.212;27.908;2022-07-29T03:04:19;22.16;76.73
71039;SHT30;58692;43.212;27.908;2022-07-29T03:06:45;22.02;77.07
71039;SHT30;58692;43.212;27.908;2022-07-29T03:09:12;21.96;77.49
71039;SHT30;58692;43.212;27.908;2022-07-29T03:11:38;21.88;77.79
71039;SHT30;58692;43.212;27.908;2022-07-29T03:14:05;21.97;77.33
71039;SHT30;58692;43.212;27.908;2022-07-29T03:16:31;21.96;77.10
71039;SHT30;58692;43.212;27.908;2022-07-29T03:18:58;21.88;77.10
71039;SHT30;58692;43.212;27.908;2022-07-29T03:21:24;21.86;76.95
71039;SHT30;58692;43.212;27.908;2022-07-29T03:23:49;21.88;76.74
71039;SHT30;58692;43.212;27.908;2022-07-29T03:26:15;21.95;76.44
71039;SHT30;58692;43.212;27.908;2022-07-29T03:28:40;22.02;76.01
71039;SHT30;58692;43.212;27.908;2022-07-29T03:31:06;22.02;75.81
71039;SHT30;58692;43.212;27.908;2022-07-29T03:33:31;22.20;75.26
71039;SHT30;58692;43.212;27.908;2022-07-29T03:35:57;22.13;75.28
71039;SHT30;58692;43.212;27.908;2022-07-29T03:38:25;22.32;74.88
71039;SHT30;58692;43.212;27.908;2022-07-29T03:40:57;22.33;74.95
71039;SHT30;58692;43.212;27.908;2022-07-29T03:43:25;22.41;74.97
71039;SHT30;58692;43.212;27.908;2022-07-29T03:45:54;22.18;76.18
71039;SHT30;58692;43.212;27.908;2022-07-29T03:48:22;21.95;77.31
71039;SHT30;58692;43.212;27.908;2022-07-29T03:50:50;22.00;77.16
71039;SHT30;58692;43.212;27.908;2022-07-29T03:53:16;22.32;76.33
71039;SHT30;58692;43.212;27.908;2022-07-29T03:55:45;22.43;75.28
71039;SHT30;58692;43.212;27.908;2022-07-29T03:58:12;22.91;73.79
71039;SHT30;58692;43.212;27.908;2022-07-29T04:00:40;22.92;73.70
71039;SHT30;58692;43.212;27.908;2022-07-29T04:03:06;22.87;74.02
71039;SHT30;58692;43.212;27.908;2022-07-29T04:05:32;23.42;72.24
71039;SHT30;58692;43.212;27.908;2022-07-29T04:07:57;23.50;71.69
71039;SHT30;58692;43.212;27.908;2022-07-29T04:10:23;23.77;70.62
71039;SHT30;58692;43.212;27.908;2022-07-29T04:12:49;23.84;70.42
71039;SHT30;58692;43.212;27.908;2022-07-29T04:15:15;24.04;70.16
71039;SHT30;58692;43.212;27.908;2022-07-29T04:17:41;24.12;70.35
71039;SHT30;58692;43.212;27.908;2022-07-29T04:20:06;24.57;69.18
71039;SHT30;58692;43.212;27.908;2022-07-29T04:22:32;24.57;69.13
71039;SHT30;58692;43.212;27.908;2022-07-29T04:24:58;24.28;70.27
71039;SHT30;58692;43.212;27.908;2022-07-29T04:27:24;24.92;68.65
71039;SHT30;58692;43.212;27.908;2022-07-29T04:29:50;24.94;68.72
71039;SHT30;58692;43.212;27.908;2022-07-29T04:32:15;24.86;69.09
71039;SHT30;58692;43.212;27.908;2022-07-29T04:34:41;24.48;70.31
71039;SHT30;58692;43.212;27.908;2022-07-29T04:37:06;24.81;69.44
71039;SHT30;58692;43.212;27.908;2022-07-29T04:39:32;25.33;67.76
71039;SHT30;58692;43.212;27.908;2022-07-29T04:41:57;25.16;68.09
71039;SHT30;58692;43.212;27.908;2022-07-29T04:44:23;25.70;66.46
71039;SHT30;58692;43.212;27.908;2022-07-29T04:46:48;25.50;66.88
71039;SHT30;58692;43.212;27.908;2022-07-29T04:49:14;26.04;65.59
71039;SHT30;58692;43.212;27.908;2022-07-29T04:51:39;26.18;64.85
71039;SHT30;58692;43.212;27.908;2022-07-29T04:54:05;26.75;63.32
71039;SHT30;58692;43.212;27.908;2022-07-29T04:56:31;27.17;62.09
71039;SHT30;58692;43.212;27.908;2022-07-29T04:58:57;27.10;61.98
71039;SHT30;58692;43.212;27.908;2022-07-29T05:01:22;27.70;60.69
71039;SHT30;58692;43.212;27.908;2022-07-29T05:03:48;27.63;60.54
71039;SHT30;58692;43.212;27.908;2022-07-29T05:06:13;27.78;60.38
71039;SHT30;58692;43.212;27.908;2022-07-29T05:08:39;27.65;60.21
71039;SHT30;58692;43.212;27.908;2022-07-29T05:11:04;28.26;59.00
71039;SHT30;58692;43.212;27.908;2022-07-29T05:13:30;28.42;58.48
71039;SHT30;58692;43.212;27.908;2022-07-29T05:15:55;28.58;58.02
71039;SHT30;58692;43.212;27.908;2022-07-29T05:18:24;28.45;58.16
71039;SHT30;58692;43.212;27.908;2022-07-29T05:20:49;28.15;59.65
71039;SHT30;58692;43.212;27.908;2022-07-29T05:23:15;27.94;60.17
71039;SHT30;58692;43.212;27.908;2022-07-29T05:25:40;28.01;60.20
71039;SHT30;58692;43.212;27.908;2022-07-29T05:28:06;28.34;59.10
71039;SHT30;58692;43.212;27.908;2022-07-29T05:30:32;28.41;59.03
71039;SHT30;58692;43.212;27.908;2022-07-29T05:32:57;29.03;57.54
71039;SHT30;58692;43.212;27.908;2022-07-29T05:35:23;29.19;56.77
71039;SHT30;58692;43.212;27.908;2022-07-29T05:37:48;29.40;56.23
71039;SHT30;58692;43.212;27.908;2022-07-29T05:40:14;29.89;54.90
71039;SHT30;58692;43.212;27.908;2022-07-29T05:42:39;29.77;55.60
71039;SHT30;58692;43.212;27.908;2022-07-29T05:45:05;29.74;54.67
71039;SHT30;58692;43.212;27.908;2022-07-29T05:47:31;29.62;54.97
71039;SHT30;58692;43.212;27.908;2022-07-29T05:49:56;30.16;54.03
71039;SHT30;58692;43.212;27.908;2022-07-29T05:52:22;30.19;53.70
71039;SHT30;58692;43.212;27.908;2022-07-29T05:54:48;30.63;52.96
71039;SHT30;58692;43.212;27.908;2022-07-29T05:57:19;30.09;53.98
71039;SHT30;58692;43.212;27.908;2022-07-29T05:59:45;30.49;52.90
71039;SHT30;58692;43.212;27.908;2022-07-29T06:02:11;30.21;53.63
71039;SHT30;58692;43.212;27.908;2022-07-29T06:04:37;30.23;53.70
71039;SHT30;58692;43.212;27.908;2022-07-29T06:07:03;30.77;52.30
71039;SHT30;58692;43.212;27.908;2022-07-29T06:09:29;30.19;53.36
71039;SHT30;58692;43.212;27.908;2022-07-29T06:11:54;30.35;53.04
71039;SHT30;58692;43.212;27.908;2022-07-29T06:14:20;30.72;52.06
71039;SHT30;58692;43.212;27.908;2022-07-29T06:16:46;31.17;50.83
71039;SHT30;58692;43.212;27.908;2022-07-29T06:19:11;31.49;50.64
71039;SHT30;58692;43.212;27.908;2022-07-29T06:21:43;31.95;49.45
71039;SHT30;58692;43.212;27.908;2022-07-29T06:24:10;32.10;48.64
71039;SHT30;58692;43.212;27.908;2022-07-29T06:26:35;32.44;48.04
71039;SHT30;58692;43.212;27.908;2022-07-29T06:29:00;32.46;47.66
71039;SHT30;58692;43.212;27.908;2022-07-29T06:31:26;32.33;47.52
71039;SHT30;58692;43.212;27.908;2022-07-29T06:33:52;31.96;48.20
71039;SHT30;58692;43.212;27.908;2022-07-29T06:36:18;32.52;46.62
71039;SHT30;58692;43.212;27.908;2022-07-29T06:38:43;32.79;45.65
71039;SHT30;58692;43.212;27.908;2022-07-29T06:41:09;32.57;45.68
71039;SHT30;58692;43.212;27.908;2022-07-29T06:43:39;33.34;43.72
71039;SHT30;58692;43.212;27.908;2022-07-29T06:46:10;32.99;43.67
71039;SHT30;58692;43.212;27.908;2022-07-29T06:48:37;32.88;43.44
71039;SHT30;58692;43.212;27.908;2022-07-29T06:51:03;32.86;43.34
71039;SHT30;58692;43.212;27.908;2022-07-29T06:53:29;32.79;42.34
71039;SHT30;58692;43.212;27.908;2022-07-29T06:55:55;33.51;41.66
71039;SHT30;58692;43.212;27.908;2022-07-29T06:58:23;33.04;41.62
71039;SHT30;58692;43.212;27.908;2022-07-29T07:00:49;34.13;40.29
71039;SHT30;58692;43.212;27.908;2022-07-29T07:03:16;34.01;40.23
71039;SHT30;58692;43.212;27.908;2022-07-29T07:05:42;34.88;38.97
71039;SHT30;58692;43.212;27.908;2022-07-29T07:08:08;34.16;39.71
71039;SHT30;58692;43.212;27.908;2022-07-29T07:10:34;34.22;39.89
71039;SHT30;58692;43.212;27.908;2022-07-29T07:13:00;32.99;43.65
71039;SHT30;58692;43.212;27.908;2022-07-29T07:15:26;32.74;44.69
71039;SHT30;58692;43.212;27.908;2022-07-29T07:17:52;32.91;43.58
71039;SHT30;58692;43.212;27.908;2022-07-29T07:20:17;32.55;44.35
71039;SHT30;58692;43.212;27.908;2022-07-29T07:22:43;32.57;44.70
71039;SHT30;58692;43.212;27.908;2022-07-29T07:25:09;32.77;44.33
71039;SHT30;58692;43.212;27.908;2022-07-29T07:27:36;32.63;43.27
71039;SHT30;58692;43.212;27.908;2022-07-29T07:30:04;32.43;44.20
71039;SHT30;58692;43.212;27.908;2022-07-29T07:32:31;33.01;42.81
71039;SHT30;58692;43.212;27.908;2022-07-29T07:34:57;33.52;41.35
71039;SHT30;58692;43.212;27.908;2022-07-29T07:37:22;33.48;40.71
71039;SHT30;58692;43.212;27.908;2022-07-29T07:39:50;33.18;41.65
71039;SHT30;58692;43.212;27.908;2022-07-29T07:42:16;31.77;42.82
71039;SHT30;58692;43.212;27.908;2022-07-29T07:44:45;32.02;43.06
71039;SHT30;58692;43.212;27.908;2022-07-29T07:47:11;32.84;41.97
71039;SHT30;58692;43.212;27.908;2022-07-29T07:49:38;32.35;42.85
71039;SHT30;58692;43.212;27.908;2022-07-29T07:52:04;31.95;44.24
71039;SHT30;58692;43.212;27.908;2022-07-29T07:54:30;32.84;41.77
71039;SHT30;58692;43.212;27.908;2022-07-29T07:56:56;33.21;41.38
71039;SHT30;58692;43.212;27.908;2022-07-29T07:59:21;33.41;41.22
71039;SHT30;58692;43.212;27.908;2022-07-29T08:01:47;33.37;40.19
71039;SHT30;58692;43.212;27.908;2022-07-29T08:04:12;33.35;41.09
71039;SHT30;58692;43.212;27.908;2022-07-29T08:06:38;33.42;41.03
71039;SHT30;58692;43.212;27.908;2022-07-29T08:09:04;33.41;39.66
71039;SHT30;58692;43.212;27.908;2022-07-29T08:11:30;34.15;38.91
71039;SHT30;58692;43.212;27.908;2022-07-29T08:13:56;34.52;38.20
71039;SHT30;58692;43.212;27.908;2022-07-29T08:16:21;33.65;38.29
71039;SHT30;58692;43.212;27.908;2022-07-29T08:18:47;33.50;39.94
71039;SHT30;58692;43.212;27.908;2022-07-29T08:21:14;33.55;40.02
71039;SHT30;58692;43.212;27.908;2022-07-29T08:23:40;33.27;40.28
71039;SHT30;58692;43.212;27.908;2022-07-29T08:26:12;32.90;41.10
71039;SHT30;58692;43.212;27.908;2022-07-29T08:28:39;32.69;40.87
71039;SHT30;58692;43.212;27.908;2022-07-29T08:31:05;33.04;40.01
71039;SHT30;58692;43.212;27.908;2022-07-29T08:33:30;32.80;39.38
71039;SHT30;58692;43.212;27.908;2022-07-29T08:35:56;33.10;39.00
71039;SHT30;58692;43.212;27.908;2022-07-29T08:38:22;32.43;39.94
71039;SHT30;58692;43.212;27.908;2022-07-29T08:40:47;33.44;38.12
71039;SHT30;58692;43.212;27.908;2022-07-29T08:43:13;33.89;36.85
71039;SHT30;58692;43.212;27.908;2022-07-29T08:45:43;34.10;36.68
71039;SHT30;58692;43.212;27.908;2022-07-29T08:48:11;34.09;37.06
71039;SHT30;58692;43.212;27.908;2022-07-29T08:50:38;33.95;37.12
71039;SHT30;58692;43.212;27.908;2022-07-29T08:53:05;33.89;36.53
71039;SHT30;58692;43.212;27.908;2022-07-29T08:55:32;33.82;36.11
71039;SHT30;58692;43.212;27.908;2022-07-29T08:57:58;33.37;36.66
71039;SHT30;58692;43.212;27.908;2022-07-29T09:00:25;33.42;36.67
71039;SHT30;58692;43.212;27.908;2022-07-29T09:02:57;33.14;37.23
71039;SHT30;58692;43.212;27.908;2022-07-29T09:05:24;33.28;36.91
71039;SHT30;58692;43.212;27.908;2022-07-29T09:07:50;33.66;37.51
71039;SHT30;58692;43.212;27.908;2022-07-29T09:10:17;34.32;35.97
71039;SHT30;58692;43.212;27.908;2022-07-29T09:12:42;34.74;36.13
71039;SHT30;58692;43.212;27.908;2022-07-29T09:15:08;34.33;35.45
71039;SHT30;58692;43.212;27.908;2022-07-29T09:17:49;34.68;35.97
71039;SHT30;58692;43.212;27.908;2022-07-29T09:20:18;34.42;36.40
71039;SHT30;58692;43.212;27.908;2022-07-29T09:22:44;34.49;36.98
71039;SHT30;58692;43.212;27.908;2022-07-29T09:25:14;35.23;36.51
71039;SHT30;58692;43.212;27.908;2022-07-29T09:27:40;34.79;35.84
71039;SHT30;58692;43.212;27.908;2022-07-29T09:30:08;34.60;36.20
71039;SHT30;58692;43.212;27.908;2022-07-29T09:32:56;33.45;39.57
71039;SHT30;58692;43.212;27.908;2022-07-29T09:35:25;34.12;39.27
71039;SHT30;58692;43.212;27.908;2022-07-29T09:37:51;33.31;40.63
71039;SHT30;58692;43.212;27.908;2022-07-29T09:40:20;33.93;40.38
71039;SHT30;58692;43.212;27.908;2022-07-29T09:42:46;32.88;42.85
71039;SHT30;58692;43.212;27.908;2022-07-29T09:45:13;32.44;45.50
71039;SHT30;58692;43.212;27.908;2022-07-29T09:47:50;32.18;46.71
71039;SHT30;58692;43.212;27.908;2022-07-29T09:50:16;32.64;45.98
71039;SHT30;58692;43.212;27.908;2022-07-29T09:52:47;32.91;45.22
71039;SHT30;58692;43.212;27.908;2022-07-29T09:55:13;32.97;45.79
71039;SHT30;58692;43.212;27.908;2022-07-29T09:57:39;33.37;41.54
71039;SHT30;58692;43.212;27.908;2022-07-29T10:00:10;33.12;41.23
71039;SHT30;58692;43.212;27.908;2022-07-29T10:02:38;33.38;42.96
71039;SHT30;58692;43.212;27.908;2022-07-29T10:05:09;33.83;40.18
71039;SHT30;58692;43.212;27.908;2022-07-29T10:10:23;33.34;41.20
71039;SHT30;58692;43.212;27.908;2022-07-29T10:12:53;33.37;43.33
71039;SHT30;58692;43.212;27.908;2022-07-29T10:15:22;33.12;42.77
71039;SHT30;58692;43.212;27.908;2022-07-29T10:17:49;34.09;40.32
71039;SHT30;58692;43.212;27.908;2022-07-29T10:20:16;33.54;42.28
71039;SHT30;58692;43.212;27.908;2022-07-29T10:22:41;33.38;42.79
71039;SHT30;58692;43.212;27.908;2022-07-29T10:25:08;33.79;42.23
71039;SHT30;58692;43.212;27.908;2022-07-29T10:27:35;33.30;43.36
71039;SHT30;58692;43.212;27.908;2022-07-29T10:30:02;33.03;40.75
71039;SHT30;58692;43.212;27.908;2022-07-29T10:32:39;32.88;43.43
71039;SHT30;58692;43.212;27.908;2022-07-29T10:35:12;32.94;44.55
71039;SHT30;58692;43.212;27.908;2022-07-29T10:43:29;33.59;38.88
71039;SHT30;58692;43.212;27.908;2022-07-29T10:45:57;33.54;40.78
71039;SHT30;58692;43.212;27.908;2022-07-29T10:48:23;33.15;40.72
71039;SHT30;58692;43.212;27.908;2022-07-29T10:53:22;33.45;40.27
71039;SHT30;58692;43.212;27.908;2022-07-29T10:55:51;33.32;41.45
71039;SHT30;58692;43.212;27.908;2022-07-29T10:58:25;33.98;39.76
71039;SHT30;58692;43.212;27.908;2022-07-29T11:00:54;33.86;39.25
71039;SHT30;58692;43.212;27.908;2022-07-29T11:06:20;33.48;41.28
71039;SHT30;58692;43.212;27.908;2022-07-29T11:11:47;34.01;40.06
71039;SHT30;58692;43.212;27.908;2022-07-29T11:14:14;34.23;40.32
71039;SHT30;58692;43.212;27.908;2022-07-29T11:16:59;34.31;40.40
71039;SHT30;58692;43.212;27.908;2022-07-29T11:19:25;34.33;40.01
71039;SHT30;58692;43.212;27.908;2022-07-29T11:21:51;33.73;40.61
71039;SHT30;58692;43.212;27.908;2022-07-29T11:27:06;34.08;42.21
71039;SHT30;58692;43.212;27.908;2022-07-29T11:29:32;33.61;42.98
71039;SHT30;58692;43.212;27.908;2022-07-29T11:32:20;33.93;40.99
71039;SHT30;58692;43.212;27.908;2022-07-29T11:34:48;33.59;40.99
71039;SHT30;58692;43.212;27.908;2022-07-29T11:37:16;33.25;41.82
71039;SHT30;58692;43.212;27.908;2022-07-29T11:39:47;33.68;42.10
71039;SHT30;58692;43.212;27.908;2022-07-29T11:44:54;34.57;40.61
71039;SHT30;58692;43.212;27.908;2022-07-29T11:47:22;34.06;43.13
71039;SHT30;58692;43.212;27.908;2022-07-29T11:49:48;34.35;42.07
71039;SHT30;58692;43.212;27.908;2022-07-29T11:52:17;34.19;41.42
71039;SHT30;58692;43.212;27.908;2022-07-29T11:54:50;34.49;40.90
71039;SHT30;58692;43.212;27.908;2022-07-29T11:57:17;33.61;41.31
71039;SHT30;58692;43.212;27.908;2022-07-29T11:59:45;33.35;42.34
71039;SHT30;58692;43.212;27.908;2022-07-29T12:02:12;33.86;43.03
71039;SHT30;58692;43.212;27.908;2022-07-29T12:04:54;33.59;43.46
71039;SHT30;58692;43.212;27.908;2022-07-29T12:09:57;32.81;42.19
71039;SHT30;58692;43.212;27.908;2022-07-29T12:12:23;32.52;43.14
71039;SHT30;58692;43.212;27.908;2022-07-29T12:14:49;32.55;44.45
71039;SHT30;58692;43.212;27.908;2022-07-29T12:17:31;31.88;45.76
71039;SHT30;58692;43.212;27.908;2022-07-29T12:20:00;31.74;47.28
71039;SHT30;58692;43.212;27.908;2022-07-29T12:22:30;31.01;49.94
71039;SHT30;58692;43.212;27.908;2022-07-29T12:25:02;31.11;48.23
71039;SHT30;58692;43.212;27.908;2022-07-29T12:27:28;30.60;50.05
71039;SHT30;58692;43.212;27.908;2022-07-29T12:29:58;30.56;51.23
71039;SHT30;58692;43.212;27.908;2022-07-29T12:32:37;30.21;52.30
71039;SHT30;58692;43.212;27.908;2022-07-29T12:35:06;29.86;51.82
71039;SHT30;58692;43.212;27.908;2022-07-29T12:37:34;29.72;53.62
71039;SHT30;58692;43.212;27.908;2022-07-29T12:40:01;29.58;55.09
71039;SHT30;58692;43.212;27.908;2022-07-29T12:42:27;29.70;54.52
71039;SHT30;58692;43.212;27.908;2022-07-29T12:44:53;30.02;53.99
71039;SHT30;58692;43.212;27.908;2022-07-29T12:47:19;30.06;53.90
71039;SHT30;58692;43.212;27.908;2022-07-29T12:50:06;29.88;52.16
71039;SHT30;58692;43.212;27.908;2022-07-29T12:52:34;29.71;55.05
71039;SHT30;58692;43.212;27.908;2022-07-29T12:55:01;29.67;54.95
71039;SHT30;58692;43.212;27.908;2022-07-29T12:57:27;29.75;53.98
71039;SHT30;58692;43.212;27.908;2022-07-29T13:02:29;29.91;52.20
71039;SHT30;58692;43.212;27.908;2022-07-29T13:04:57;29.67;54.11
71039;SHT30;58692;43.212;27.908;2022-07-29T13:07:25;29.80;54.73
71039;SHT30;58692;43.212;27.908;2022-07-29T13:09:53;29.78;51.21
71039;SHT30;58692;43.212;27.908;2022-07-29T13:12:19;29.68;53.00
71039;SHT30;58692;43.212;27.908;2022-07-29T13:14:49;29.77;53.37
71039;SHT30;58692;43.212;27.908;2022-07-29T13:22:08;29.50;57.04
71039;SHT30;58692;43.212;27.908;2022-07-29T13:24:49;29.37;56.43
71039;SHT30;58692;43.212;27.908;2022-07-29T13:27:17;29.47;57.29
71039;SHT30;58692;43.212;27.908;2022-07-29T13:29:43;29.43;57.52
71039;SHT30;58692;43.212;27.908;2022-07-29T13:32:09;29.38;58.53
71039;SHT30;58692;43.212;27.908;2022-07-29T13:34:34;29.40;56.14
71039;SHT30;58692;43.212;27.908;2022-07-29T13:37:00;29.51;57.68
71039;SHT30;58692;43.212;27.908;2022-07-29T13:39:25;29.46;56.37
71039;SHT30;58692;43.212;27.908;2022-07-29T13:41:51;29.24;58.62
71039;SHT30;58692;43.212;27.908;2022-07-29T13:44:17;29.29;60.61
71039;SHT30;58692;43.212;27.908;2022-07-29T13:46:43;29.46;58.95
71039;SHT30;58692;43.212;27.908;2022-07-29T13:49:08;29.33;59.02
71039;SHT30;58692;43.212;27.908;2022-07-29T13:51:34;29.24;60.00
71039;SHT30;58692;43.212;27.908;2022-07-29T13:53:59;29.06;61.47
71039;SHT30;58692;43.212;27.908;2022-07-29T13:56:25;28.89;61.20
71039;SHT30;58692;43.212;27.908;2022-07-29T13:58:51;28.76;58.91
71039;SHT30;58692;43.212;27.908;2022-07-29T14:01:16;28.66;59.98
71039;SHT30;58692;43.212;27.908;2022-07-29T14:03:42;28.76;61.29
71039;SHT30;58692;43.212;27.908;2022-07-29T14:06:08;28.79;60.23
71039;SHT30;58692;43.212;27.908;2022-07-29T14:08:34;28.72;60.57
71039;SHT30;58692;43.212;27.908;2022-07-29T14:11:00;28.82;60.91
71039;SHT30;58692;43.212;27.908;2022-07-29T14:13:25;28.95;61.67
71039;SHT30;58692;43.212;27.908;2022-07-29T14:15:51;29.11;59.10
71039;SHT30;58692;43.212;27.908;2022-07-29T14:18:17;29.11;56.29
71039;SHT30;58692;43.212;27.908;2022-07-29T14:20:42;29.13;55.79
71039;SHT30;58692;43.212;27.908;2022-07-29T14:23:08;29.30;54.96
71039;SHT30;58692;43.212;27.908;2022-07-29T14:25:34;29.41;54.67
71039;SHT30;58692;43.212;27.908;2022-07-29T14:27:59;29.23;55.81
71039;SHT30;58692;43.212;27.908;2022-07-29T14:30:25;28.89;57.55
71039;SHT30;58692;43.212;27.908;2022-07-29T14:32:50;28.79;56.60
71039;SHT30;58692;43.212;27.908;2022-07-29T14:35:16;28.84;56.93
71039;SHT30;58692;43.212;27.908;2022-07-29T14:37:41;28.78;56.00
71039;SHT30;58692;43.212;27.908;2022-07-29T14:40:08;28.73;57.09
71039;SHT30;58692;43.212;27.908;2022-07-29T14:42:34;28.96;57.06
71039;SHT30;58692;43.212;27.908;2022-07-29T14:44:59;29.19;56.64
71039;SHT30;58692;43.212;27.908;2022-07-29T14:47:25;28.99;54.79
71039;SHT30;58692;43.212;27.908;2022-07-29T14:49:50;28.68;56.04
71039;SHT30;58692;43.212;27.908;2022-07-29T14:52:16;28.44;55.68
71039;SHT30;58692;43.212;27.908;2022-07-29T14:54:41;28.52;56.96
71039;SHT30;58692;43.212;27.908;2022-07-29T14:57:07;28.46;58.38
71039;SHT30;58692;43.212;27.908;2022-07-29T14:59:34;28.51;59.37
71039;SHT30;58692;43.212;27.908;2022-07-29T15:01:59;28.66;57.67
71039;SHT30;58692;43.212;27.908;2022-07-29T15:04:25;28.70;58.60
71039;SHT30;58692;43.212;27.908;2022-07-29T15:06:50;28.49;59.26
71039;SHT30;58692;43.212;27.908;2022-07-29T15:09:17;28.48;60.05
71039;SHT30;58692;43.212;27.908;2022-07-29T15:11:43;28.29;61.33
71039;SHT30;58692;43.212;27.908;2022-07-29T15:14:09;28.17;61.00
71039;SHT30;58692;43.212;27.908;2022-07-29T15:16:36;28.36;60.77
71039;SHT30;58692;43.212;27.908;2022-07-29T15:19:02;28.26;59.70
71039;SHT30;58692;43.212;27.908;2022-07-29T15:21:28;28.11;60.92
71039;SHT30;58692;43.212;27.908;2022-07-29T15:23:53;28.08;61.66
71039;SHT30;58692;43.212;27.908;2022-07-29T15:26:19;28.15;59.87
71039;SHT30;58692;43.212;27.908;2022-07-29T15:28:44;28.28;60.88
71039;SHT30;58692;43.212;27.908;2022-07-29T15:31:10;28.41;61.58
71039;SHT30;58692;43.212;27.908;2022-07-29T15:33:35;28.21;60.86
71039;SHT30;58692;43.212;27.908;2022-07-29T15:36:01;28.22;62.12
71039;SHT30;58692;43.212;27.908;2022-07-29T15:38:26;28.04;62.82
71039;SHT30;58692;43.212;27.908;2022-07-29T15:40:52;27.91;61.59
71039;SHT30;58692;43.212;27.908;2022-07-29T15:43:17;27.88;63.16
71039;SHT30;58692;43.212;27.908;2022-07-29T15:45:43;28.04;64.11
71039;SHT30;58692;43.212;27.908;2022-07-29T15:48:28;28.09;64.81
71039;SHT30;58692;43.212;27.908;2022-07-29T15:50:54;28.02;65.05
71039;SHT30;58692;43.212;27.908;2022-07-29T15:53:20;28.00;65.11
71039;SHT30;58692;43.212;27.908;2022-07-29T15:55:45;27.98;65.79
71039;SHT30;58692;43.212;27.908;2022-07-29T15:58:11;27.90;65.23
71039;SHT30;58692;43.212;27.908;2022-07-29T16:00:36;27.95;65.91
71039;SHT30;58692;43.212;27.908;2022-07-29T16:03:02;27.83;66.19
71039;SHT30;58692;43.212;27.908;2022-07-29T16:05:27;27.84;65.48